Time;durP1;ratioP1;P1;durP2;ratioP2;P2;SDS_P1;SDS_P2;PMS_P1;PMS_P2;Temp;Humidity;BMP_temperature;BMP_pressure;BME280_temperature;BME280_humidity;BME280_pressure;Samples;Min_cycle;Max_cycle;Signal;HPM_P1;HPM_P2
2022/11/13 00:01:51;;;;;;;17.70;12.80;;;25.60;91.40;;;;;;1839470;76;21174;-85
2022/11/13 00:04:22;;;;;;;18.75;12.58;;;25.60;91.30;;;;;;1836317;77;21488;-85
2022/11/13 00:06:52;;;;;;;21.77;12.50;;;25.60;91.40;;;;;;1848963;77;21645;-84
2022/11/13 00:09:24;;;;;;;22.62;12.60;;;25.60;90.80;;;;;;1847196;77;21171;-83
2022/11/13 00:11:56;;;;;;;20.23;12.75;;;25.70;90.80;;;;;;1771039;79;21110;-84
2022/11/13 00:14:27;;;;;;;17.98;12.50;;;25.80;91.00;;;;;;1827932;78;21098;-84
2022/11/13 00:16:58;;;;;;;15.95;10.75;;;25.80;90.90;;;;;;1836475;78;21143;-84
2022/11/13 00:19:28;;;;;;;18.55;11.38;;;25.80;90.80;;;;;;1833687;78;21123;-83
2022/11/13 00:21:59;;;;;;;14.60;10.25;;;25.80;90.70;;;;;;1833292;78;21209;-84
2022/11/13 00:24:30;;;;;;;15.10;9.78;;;25.80;90.70;;;;;;1837715;78;21170;-84
2022/11/13 00:27:01;;;;;;;13.50;10.15;;;25.80;90.70;;;;;;1833968;78;21163;-84
2022/11/13 00:29:32;;;;;;;14.90;9.90;;;25.90;90.80;;;;;;1828142;78;21196;-85
2022/11/13 00:32:03;;;;;;;16.77;11.00;;;25.90;90.50;;;;;;1816090;78;21151;-85
2022/11/13 00:34:34;;;;;;;14.35;10.28;;;26.00;90.40;;;;;;1840289;77;21595;-85
2022/11/13 00:37:06;;;;;;;20.50;12.85;;;26.00;90.40;;;;;;1826384;78;22441;-85
2022/11/13 00:39:37;;;;;;;12.13;7.83;;;26.00;90.30;;;;;;1823960;78;21117;-86
2022/11/13 00:42:08;;;;;;;10.35;7.72;;;26.00;90.10;;;;;;1832581;78;21088;-84
2022/11/13 00:44:39;;;;;;;13.15;8.58;;;26.00;90.10;;;;;;1833507;77;21096;-85
2022/11/13 00:47:10;;;;;;;11.88;7.92;;;26.00;90.10;;;;;;1823425;78;21171;-84
2022/11/13 00:49:41;;;;;;;14.10;9.03;;;26.00;90.10;;;;;;1829125;78;21089;-85
2022/11/13 00:52:12;;;;;;;11.55;8.43;;;26.00;90.10;;;;;;1833303;78;21108;-85
2022/11/13 00:54:42;;;;;;;12.95;7.80;;;26.00;90.10;;;;;;1836790;78;21701;-86
2022/11/13 00:57:13;;;;;;;12.68;7.42;;;26.00;90.40;;;;;;1819148;78;21130;-86
2022/11/13 00:59:53;;;;;;;13.22;7.90;;;26.10;90.10;;;;;;1778301;80;21245;-86
2022/11/13 01:02:48;;;;;;;10.50;6.70;;;26.10;90.10;;;;;;1828455;78;21151;-86
2022/11/13 01:05:24;;;;;;;9.95;6.75;;;26.20;89.60;;;;;;1824392;77;21261;-86
2022/11/13 01:08:04;;;;;;;9.10;6.70;;;26.30;89.30;;;;;;1832773;76;21115;-85
2022/11/13 01:10:32;;;;;;;12.53;7.40;;;26.40;89.10;;;;;;1838112;77;21218;-85
2022/11/13 01:13:11;;;;;;;9.85;6.87;;;26.50;88.70;;;;;;1839440;77;21641;-86
2022/11/13 01:15:43;;;;;;;10.38;7.42;;;26.50;88.40;;;;;;1808583;78;21613;-85
2022/11/13 01:18:14;;;;;;;12.60;6.70;;;26.60;88.10;;;;;;1833564;77;21245;-84
2022/11/13 01:20:53;;;;;;;9.55;6.45;;;26.70;87.80;;;;;;1844338;76;21229;-84
2022/11/13 01:26:47;;;;;;;10.68;6.72;;;26.70;86.90;;;;;;1695886;84;21795;-85
2022/11/13 01:29:40;;;;;;;9.95;6.30;;;26.80;86.40;;;;;;1705441;81;21151;-84
2022/11/13 01:32:17;;;;;;;10.60;6.50;;;26.90;86.10;;;;;;1753440;79;21227;-85
2022/11/13 01:34:48;;;;;;;8.18;6.05;;;26.90;86.00;;;;;;1813004;78;21204;-85
2022/11/13 01:37:19;;;;;;;12.78;7.42;;;27.00;85.80;;;;;;1800970;79;21149;-85
2022/11/13 01:39:56;;;;;;;6.60;4.97;;;27.00;85.60;;;;;;1842944;76;21083;-85
2022/11/13 01:42:26;;;;;;;9.50;5.90;;;27.10;85.00;;;;;;1831998;77;21111;-83
2022/11/13 01:45:09;;;;;;;9.13;5.83;;;27.10;84.30;;;;;;1839119;77;21091;-85
2022/11/13 01:47:42;;;;;;;10.70;6.37;;;27.20;83.90;;;;;;1843248;76;21080;-86
2022/11/13 01:50:34;;;;;;;8.63;5.53;;;27.20;83.70;;;;;;1805240;78;21233;-85
2022/11/13 01:53:06;;;;;;;9.58;6.42;;;27.20;83.50;;;;;;1792177;79;21140;-85
2022/11/13 01:55:37;;;;;;;11.97;7.17;;;27.20;83.70;;;;;;1837160;76;21152;-84
2022/11/13 01:58:10;;;;;;;8.35;5.72;;;27.20;84.10;;;;;;1849173;76;21894;-85
2022/11/13 02:00:42;;;;;;;10.10;6.37;;;27.20;83.90;;;;;;1777485;80;21141;-85
2022/11/13 02:03:13;;;;;;;11.83;7.40;;;27.20;83.80;;;;;;1840803;77;21170;-84
2022/11/13 02:05:44;;;;;;;8.85;6.28;;;27.20;84.10;;;;;;1849382;77;21193;-84
2022/11/13 02:08:16;;;;;;;10.80;6.90;;;27.20;84.10;;;;;;1777924;80;21164;-84
2022/11/13 02:10:50;;;;;;;9.93;6.17;;;27.20;84.30;;;;;;1810541;79;21172;-85
2022/11/13 02:13:39;;;;;;;;;;;;;;;;;;;;;
2022/11/13 02:20:24;;;;;;;11.18;6.90;;;27.20;85.00;;;;;;1662799;85;21191;-82
2022/11/13 02:23:03;;;;;;;12.60;7.92;;;27.30;84.60;;;;;;1667320;85;22430;-85
2022/11/13 02:25:34;;;;;;;10.13;7.22;;;27.40;84.40;;;;;;1669455;84;21198;-83
2022/11/13 02:28:05;;;;;;;9.35;7.53;;;27.50;84.20;;;;;;1725838;82;21295;-80
2022/11/13 02:30:36;;;;;;;12.45;7.78;;;27.50;84.10;;;;;;1750850;80;21198;-81
2022/11/13 02:33:26;;;;;;;12.68;7.00;;;27.60;84.10;;;;;;1750392;80;21249;-82
2022/11/13 02:35:57;;;;;;;9.63;6.75;;;27.70;83.10;;;;;;1756600;80;21154;-81
2022/11/13 02:38:43;;;;;;;10.95;6.55;;;27.80;83.10;;;;;;1747553;80;21232;-80
2022/11/13 02:45:14;;;;;;;;;;;;;;;;;;;;;
2022/11/13 02:47:56;;;;;;;10.53;6.40;;;28.10;82.90;;;;;;1737768;80;21366;-84
2022/11/13 02:50:28;;;;;;;9.15;6.90;;;28.20;81.80;;;;;;1750160;80;21194;-84
2022/11/13 02:53:35;;;;;;;;;;;;;;;;;;;;;
2022/11/13 02:56:27;;;;;;;9.43;5.80;;;28.30;81.10;;;;;;1747437;77;21256;-83
2022/11/13 03:02:05;;;;;;;12.05;6.92;;;28.40;80.80;;;;;;1810806;77;21167;-85
2022/11/13 03:05:09;;;;;;;9.75;6.08;;;28.50;80.80;;;;;;1792325;77;21165;-85
2022/11/13 03:07:41;;;;;;;6.90;5.22;;;28.50;80.20;;;;;;1838686;76;21185;-84
2022/11/13 03:10:12;;;;;;;7.58;4.62;;;28.60;80.00;;;;;;1854679;76;21259;-84
2022/11/13 03:12:43;;;;;;;7.35;4.78;;;28.60;79.20;;;;;;1788162;79;21205;-84
2022/11/13 03:15:14;;;;;;;10.50;5.42;;;28.70;78.90;;;;;;1811300;79;21153;-85
2022/11/13 03:17:45;;;;;;;6.97;4.65;;;28.80;78.50;;;;;;1806871;79;21081;-85
2022/11/13 03:20:16;;;;;;;9.13;4.65;;;29.00;78.10;;;;;;1810656;77;21187;-85
2022/11/13 03:22:47;;;;;;;7.37;4.67;;;29.10;77.60;;;;;;1845413;77;21678;-85
2022/11/13 03:25:18;;;;;;;7.10;4.53;;;29.20;77.40;;;;;;1839327;77;21115;-85
2022/11/13 03:27:49;;;;;;;6.65;4.53;;;29.30;77.40;;;;;;1840731;77;21174;-84
2022/11/13 03:30:20;;;;;;;6.55;4.30;;;29.30;77.20;;;;;;1809458;79;21074;-85
2022/11/13 03:32:55;;;;;;;6.60;4.62;;;29.40;76.20;;;;;;1774823;79;21163;-86
2022/11/13 03:35:26;;;;;;;9.23;4.50;;;29.50;75.80;;;;;;1776446;80;21647;-86
2022/11/13 03:37:59;;;;;;;10.82;4.70;;;29.60;75.80;;;;;;1815596;79;21137;-87
2022/11/13 03:40:36;;;;;;;7.33;4.33;;;29.70;74.80;;;;;;1804292;79;21219;-86
2022/11/13 03:43:37;;;;;;;;;;;;;;;;;;;;;
2022/11/13 03:46:18;;;;;;;16.07;4.78;;;29.70;74.80;;;;;;1796577;79;21144;-86
2022/11/13 03:48:37;;;;;;;8.15;4.28;;;29.80;75.50;;;;;;1716245;82;21328;-84
2022/11/13 03:51:15;;;;;;;7.17;4.42;;;29.80;74.80;;;;;;1694293;79;21211;-84
2022/11/13 03:53:46;;;;;;;7.05;4.25;;;29.90;74.30;;;;;;1847759;77;21229;-86
2022/11/13 03:56:17;;;;;;;8.13;5.05;;;29.90;74.50;;;;;;1853135;77;21583;-86
2022/11/13 03:58:48;;;;;;;7.22;4.45;;;29.90;74.90;;;;;;1853511;77;21150;-85
2022/11/13 04:01:21;;;;;;;10.78;4.62;;;29.90;74.40;;;;;;1849335;77;21186;-84
2022/11/13 04:03:52;;;;;;;11.85;4.50;;;30.00;73.90;;;;;;1855509;77;21154;-83
2022/11/13 04:06:23;;;;;;;7.25;4.22;;;30.10;73.60;;;;;;1853599;77;21197;-85
2022/11/13 04:08:54;;;;;;;6.50;4.05;;;30.20;73.50;;;;;;1841170;77;21169;-84
2022/11/13 04:11:30;;;;;;;;;;;30.40;73.00;;;;;;1849815;76;21641;-84
2022/11/13 04:14:02;;;;;;;7.62;4.55;;;30.50;72.70;;;;;;1834578;76;20176;-84
2022/11/13 04:16:33;;;;;;;7.60;4.78;;;30.50;72.50;;;;;;1843237;77;21088;-83
2022/11/13 04:19:05;;;;;;;6.53;4.53;;;30.50;72.60;;;;;;1843312;77;21601;-84
2022/11/13 04:21:37;;;;;;;6.10;4.17;;;30.50;73.00;;;;;;1851300;77;21179;-85
2022/11/13 04:24:11;;;;;;;10.32;4.50;;;30.40;73.20;;;;;;1849547;76;21123;-84
2022/11/13 04:26:45;;;;;;;6.80;4.03;;;30.30;73.40;;;;;;1835346;77;21131;-84
2022/11/13 04:29:16;;;;;;;6.90;4.25;;;30.30;73.60;;;;;;1847444;77;21170;-83
2022/11/13 04:31:47;;;;;;;6.85;3.72;;;30.20;73.90;;;;;;1851102;76;21174;-84
2022/11/13 04:34:21;;;;;;;6.37;4.08;;;30.40;74.20;;;;;;1846064;77;21080;-84
2022/11/13 04:36:52;;;;;;;8.10;4.30;;;30.50;73.80;;;;;;1835110;77;21159;-83
2022/11/13 04:39:23;;;;;;;6.47;3.92;;;30.70;73.20;;;;;;1768767;79;21590;-83
2022/11/13 04:44:43;;;;;;;8.98;4.45;;;31.10;72.00;;;;;;1852016;77;21075;-83
2022/11/13 04:47:15;;;;;;;5.62;3.90;;;31.20;71.10;;;;;;1849551;76;21661;-83
2022/11/13 04:49:46;;;;;;;6.47;3.90;;;31.30;71.00;;;;;;1791292;80;21103;-83
2022/11/13 04:52:17;;;;;;;10.72;4.17;;;31.40;70.70;;;;;;1847579;77;21225;-83
2022/11/13 04:54:51;;;;;;;5.45;3.50;;;31.40;70.70;;;;;;1844854;77;21280;-83
2022/11/13 04:57:26;;;;;;;7.45;4.15;;;31.40;70.30;;;;;;1846406;77;21134;-85
2022/11/13 05:00:00;;;;;;;;;;;31.40;70.50;;;;;;1834378;77;22460;-83
2022/11/13 05:02:31;;;;;;;8.63;3.65;;;31.40;71.10;;;;;;1835600;77;20200;-83
2022/11/13 05:05:02;;;;;;;7.25;3.52;;;31.40;71.30;;;;;;1841848;77;21158;-83
2022/11/13 05:07:34;;;;;;;9.00;3.55;;;31.30;70.00;;;;;;1848031;77;21173;-83
2022/11/13 05:10:05;;;;;;;7.40;3.52;;;31.40;69.90;;;;;;1844038;76;21659;-85
2022/11/13 05:12:40;;;;;;;5.70;3.42;;;31.30;69.70;;;;;;1844223;76;21167;-84
2022/11/13 05:15:11;;;;;;;6.35;3.90;;;31.30;69.70;;;;;;1813972;78;21170;-84
2022/11/13 05:17:54;;;;;;;;;;;;;;;;;;;;;
2022/11/13 05:21:02;;;;;;;7.78;4.00;;;31.20;70.80;;;;;;1815518;78;21094;-84
2022/11/13 05:23:49;;;;;;;8.08;3.77;;;31.10;71.10;;;;;;1788215;79;21069;-84
2022/11/13 05:26:21;;;;;;;6.62;3.98;;;31.00;71.40;;;;;;1752439;81;21157;-84
2022/11/13 05:29:16;;;;;;;8.15;4.00;;;30.90;71.90;;;;;;1782470;80;21132;-84
2022/11/13 05:32:24;;;;;;;5.60;3.70;;;30.90;72.10;;;;;;1646525;85;21338;-85
2022/11/13 05:34:57;;;;;;;5.25;3.77;;;30.80;72.30;;;;;;1652203;85;21198;-84
2022/11/13 05:37:34;;;;;;;5.58;3.65;;;30.70;72.60;;;;;;1705549;84;21182;-84
2022/11/13 05:40:01;;;;;;;6.75;3.95;;;30.60;73.00;;;;;;1700066;84;21336;-85
2022/11/13 05:42:33;;;;;;;8.90;4.08;;;30.60;72.90;;;;;;1700410;84;21262;-85
2022/11/13 05:45:05;;;;;;;6.67;4.25;;;30.60;73.20;;;;;;1701098;84;21223;-84
2022/11/13 05:47:41;;;;;;;6.17;4.05;;;30.60;74.00;;;;;;1702416;82;21177;-85
2022/11/13 05:50:14;;;;;;;5.67;3.87;;;30.60;73.60;;;;;;1704754;84;21193;-85
2022/11/13 05:52:48;;;;;;;10.20;4.53;;;30.70;73.10;;;;;;1701919;84;21241;-85
2022/11/13 05:55:27;;;;;;;6.20;4.12;;;30.90;73.40;;;;;;1704406;82;21638;-85
2022/11/13 05:58:16;;;;;;;8.05;4.28;;;31.00;72.90;;;;;;1630839;86;21707;-85
2022/11/13 06:00:48;;;;;;;6.40;4.12;;;31.10;72.60;;;;;;1695004;84;21199;-85
2022/11/13 06:06:30;;;;;;;5.97;3.30;;;31.30;72.00;;;;;;1726362;81;21296;-84
2022/11/13 06:09:14;;;;;;;9.43;4.17;;;31.30;71.70;;;;;;1801653;78;21638;-85
2022/11/13 06:12:00;;;;;;;5.50;3.80;;;31.30;72.00;;;;;;1823517;78;21683;-84
2022/11/13 06:15:16;;;;;;;;;;;;;;;;;;;;;
2022/11/13 06:18:11;;;;;;;4.85;3.47;;;31.10;72.50;;;;;;1646512;84;21232;-84
2022/11/13 06:24:20;;;;;;;6.20;3.67;;;31.00;72.30;;;;;;1949203;73;22663;-84
2022/11/13 06:26:58;;;;;;;;;;;;;;;;;;;;;
2022/11/13 06:29:45;;;;;;;5.97;3.12;;;31.10;72.30;;;;;;1869182;75;21784;-84
2022/11/13 06:32:11;;;;;;;6.75;3.40;;;31.20;71.60;;;;;;1894354;75;21120;-85
2022/11/13 06:34:48;;;;;;;5.03;2.87;;;31.20;71.90;;;;;;1901185;75;21143;-84
2022/11/13 06:44:15;;;;;;;4.50;2.70;;;31.60;70.30;;;;;;1660354;85;21213;-84
2022/11/13 06:50:56;;;;;;;;;;;;;;;;;;;;;
2022/11/13 06:56:50;;;;;;;6.95;3.10;;;31.60;69.50;;;;;;1741990;80;21787;-85
2022/11/13 06:59:39;;;;;;;;;;;;;;;;;;;;;
2022/11/13 07:06:38;;;;;;;;;;;;;;;;;;;;;
2022/11/13 07:08:54;;;;;;;7.85;3.35;;;32.00;67.90;;;;;;1842587;76;21592;-83
2022/11/13 07:11:42;;;;;;;;;;;;;;;;;;;;;
2022/11/13 07:14:59;;;;;;;8.98;3.12;;;32.10;68.30;;;;;;1873047;75;21626;-84
2022/11/13 07:27:56;;;;;;;;;;;;;;;;;;;;;
2022/11/13 07:29:31;;;;;;;6.92;2.98;;;32.10;68.20;;;;;;1637266;86;21132;-84
2022/11/13 07:32:10;;;;;;;7.40;3.20;;;32.00;68.00;;;;;;1640814;86;21281;-84
2022/11/13 07:35:04;;;;;;;4.17;2.72;;;32.00;68.00;;;;;;1646064;86;21645;-83
2022/11/13 07:48:21;;;;;;;6.05;2.65;;;32.00;68.00;;;;;;1916316;73;22208;-85
2022/11/13 07:50:51;;;;;;;6.85;3.27;;;32.00;68.80;;;;;;1896199;75;21122;-84
2022/11/13 07:53:23;;;;;;;5.87;2.67;;;31.90;68.60;;;;;;1874864;75;21079;-88
2022/11/13 07:55:55;;;;;;;3.65;2.40;;;31.90;68.90;;;;;;1875111;75;21082;-88
2022/11/13 07:58:26;;;;;;;7.03;2.70;;;31.90;68.40;;;;;;1882215;75;21154;-87
2022/11/13 08:01:02;;;;;;;5.25;2.62;;;31.90;68.50;;;;;;1900655;75;21060;-89
2022/11/13 08:03:34;;;;;;;7.40;3.22;;;31.90;68.30;;;;;;1897728;75;21184;-88
2022/11/13 08:06:06;;;;;;;4.75;2.52;;;31.90;69.00;;;;;;1885983;75;21134;-88
2022/11/13 08:08:37;;;;;;;3.95;2.40;;;31.90;68.60;;;;;;1892833;75;21070;-90
2022/11/13 08:11:09;;;;;;;4.90;2.60;;;31.90;68.60;;;;;;1891233;75;21184;-85
2022/11/13 08:13:44;;;;;;;3.85;2.52;;;31.80;68.50;;;;;;1881944;75;21190;-89
2022/11/13 08:16:34;;;;;;;6.97;2.75;;;31.80;68.40;;;;;;1859059;74;21147;-92
2022/11/13 08:19:10;;;;;;;3.83;2.10;;;31.80;68.50;;;;;;1843663;76;21112;-89
2022/11/13 08:21:38;;;;;;;3.85;2.25;;;31.80;68.60;;;;;;1845309;76;21124;-90
2022/11/13 08:24:12;;;;;;;4.62;2.30;;;31.80;68.30;;;;;;1852123;77;21139;-92
2022/11/13 08:26:56;;;;;;;3.50;2.30;;;31.80;68.80;;;;;;1862891;76;21114;-92
2022/11/13 08:29:43;;;;;;;4.00;2.70;;;31.80;68.80;;;;;;1865349;75;21138;-93
2022/11/13 08:32:11;;;;;;;5.20;2.30;;;31.70;68.90;;;;;;1841287;77;21138;-93
2022/11/13 08:37:39;;;;;;;4.97;2.55;;;31.70;69.10;;;;;;1924138;73;21133;-93
2022/11/13 08:40:11;;;;;;;6.20;2.30;;;31.60;69.10;;;;;;1896655;74;21079;-92
2022/11/13 08:42:42;;;;;;;4.08;2.22;;;31.60;69.20;;;;;;1931999;73;21234;-87
2022/11/13 08:45:13;;;;;;;4.17;2.00;;;31.60;69.20;;;;;;1922251;73;21114;-91
2022/11/13 08:47:44;;;;;;;6.95;2.47;;;31.60;69.30;;;;;;1928401;74;21136;-91
2022/11/13 08:50:18;;;;;;;2.62;1.98;;;31.50;69.20;;;;;;1923548;73;21095;-89
2022/11/13 08:53:01;;;;;;;5.17;2.50;;;31.50;69.10;;;;;;1927074;74;21106;-92
2022/11/13 08:55:34;;;;;;;3.65;2.35;;;31.60;69.30;;;;;;1926641;73;21362;-90
2022/11/13 08:58:12;;;;;;;5.67;2.45;;;31.50;69.40;;;;;;1892286;74;21300;-91
2022/11/13 09:00:43;;;;;;;6.28;3.00;;;31.50;69.50;;;;;;1937943;73;21148;-90
2022/11/13 09:03:21;;;;;;;6.50;2.58;;;31.60;69.50;;;;;;1912149;74;21066;-91
2022/11/13 09:05:52;;;;;;;4.12;2.52;;;31.50;69.40;;;;;;1927961;74;21069;-91
2022/11/13 09:08:33;;;;;;;4.78;2.50;;;31.60;69.60;;;;;;1928968;74;21059;-91
2022/11/13 09:11:09;;;;;;;4.85;2.50;;;31.60;69.70;;;;;;1928333;74;21133;-91
2022/11/13 09:13:42;;;;;;;3.77;2.47;;;31.50;69.70;;;;;;1927502;74;21055;-92
2022/11/13 09:16:18;;;;;;;3.85;2.50;;;31.50;69.80;;;;;;1961008;73;21074;-90
2022/11/13 09:18:53;;;;;;;7.83;2.87;;;31.50;69.80;;;;;;1944180;73;21114;-92
2022/11/13 09:21:24;;;;;;;4.33;2.60;;;31.50;69.90;;;;;;1915590;74;21087;-92
2022/11/13 09:24:04;;;;;;;5.55;2.35;;;31.40;70.00;;;;;;1919200;73;21182;-91
2022/11/13 09:26:36;;;;;;;6.50;3.15;;;31.40;70.10;;;;;;1923856;73;21154;-92
2022/11/13 09:29:09;;;;;;;5.28;2.62;;;31.40;70.50;;;;;;1925908;74;21123;-90
2022/11/13 09:31:40;;;;;;;8.68;5.00;;;31.30;70.60;;;;;;1916172;74;21145;-91
2022/11/13 09:34:11;;;;;;;7.67;3.10;;;31.30;70.70;;;;;;1894959;74;21131;-91
2022/11/13 09:36:42;;;;;;;8.40;2.62;;;31.30;70.70;;;;;;1925848;72;21121;-89
2022/11/13 09:39:15;;;;;;;6.85;2.70;;;31.20;70.70;;;;;;1895054;76;21148;-91
2022/11/13 09:41:49;;;;;;;5.47;2.50;;;31.30;70.90;;;;;;1902330;72;21090;-92
2022/11/13 09:44:33;;;;;;;6.50;2.70;;;31.30;71.00;;;;;;1914394;74;21121;-91
2022/11/13 09:47:18;;;;;;;4.55;2.87;;;31.30;71.30;;;;;;1895124;74;21216;-90
2022/11/13 09:49:52;;;;;;;6.97;2.70;;;31.30;71.20;;;;;;1894883;73;21101;-89
2022/11/13 09:52:26;;;;;;;5.78;2.80;;;31.30;71.60;;;;;;1901084;75;21345;-90
2022/11/13 09:55:03;;;;;;;5.72;2.83;;;31.30;72.00;;;;;;1900338;74;21145;-90
2022/11/13 09:57:52;;;;;;;5.55;3.30;;;31.20;72.30;;;;;;1896790;75;21093;-91
2022/11/13 10:00:27;;;;;;;6.78;3.40;;;31.20;72.60;;;;;;1864656;74;21054;-91
2022/11/13 10:03:22;;;;;;;5.08;3.20;;;31.10;72.70;;;;;;1899127;73;21034;-92
2022/11/13 10:06:20;;;;;;;5.08;3.40;;;31.10;73.20;;;;;;1881890;75;21155;-93
2022/11/13 10:08:56;;;;;;;7.33;3.67;;;31.00;73.50;;;;;;1896844;74;21453;-92
2022/11/13 10:11:29;;;;;;;4.55;3.37;;;31.00;73.90;;;;;;1894524;72;21137;-91
2022/11/13 10:14:05;;;;;;;6.28;3.42;;;31.00;74.20;;;;;;1892281;74;21082;-91
2022/11/13 10:19:50;;;;;;;8.75;5.42;;;30.80;74.60;;;;;;1823241;78;21156;-92
2022/11/13 10:22:39;;;;;;;8.83;6.12;;;30.80;74.90;;;;;;1835512;78;21151;-91
2022/11/13 10:25:24;;;;;;;11.95;7.70;;;30.80;75.10;;;;;;1852030;77;21163;-90
2022/11/13 10:28:00;;;;;;;12.30;6.62;;;30.70;75.20;;;;;;1832636;77;21150;-90
2022/11/13 10:30:33;;;;;;;9.40;5.20;;;30.70;75.40;;;;;;1850368;77;21208;-91
2022/11/13 10:33:24;;;;;;;8.05;5.22;;;30.60;75.40;;;;;;1847471;77;21131;-91
2022/11/13 10:36:18;;;;;;;10.85;5.72;;;30.60;75.70;;;;;;1850238;77;21102;-93
2022/11/13 10:38:54;;;;;;;10.63;5.70;;;30.60;75.90;;;;;;1864628;77;21142;-91
2022/11/13 10:41:29;;;;;;;10.15;4.33;;;30.50;76.10;;;;;;1806390;78;21091;-89
2022/11/13 10:44:27;;;;;;;9.25;4.17;;;30.50;76.90;;;;;;1834855;78;21218;-88
2022/11/13 10:47:07;;;;;;;9.93;3.98;;;30.50;78.30;;;;;;1847970;77;21189;-91
2022/11/13 10:49:40;;;;;;;11.57;3.52;;;30.30;78.70;;;;;;1852260;77;21165;-90
2022/11/13 10:52:29;;;;;;;14.43;3.30;;;30.20;79.00;;;;;;1836457;77;21213;-91
2022/11/13 10:55:18;;;;;;;7.45;2.12;;;30.00;80.20;;;;;;1848873;76;21254;-88
2022/11/13 10:58:04;;;;;;;4.47;1.30;;;29.70;82.70;;;;;;1833025;77;21146;-89
2022/11/13 11:00:37;;;;;;;5.58;1.45;;;29.40;82.50;;;;;;1847065;77;21129;-92
2022/11/13 11:03:28;;;;;;;3.83;1.60;;;29.30;82.60;;;;;;1848191;77;21200;-92
2022/11/13 11:06:03;;;;;;;4.42;1.72;;;29.20;82.70;;;;;;1754193;80;21902;-91
2022/11/13 11:08:36;;;;;;;4.37;1.95;;;29.10;83.10;;;;;;1754190;79;21790;-91
2022/11/13 11:14:30;;;;;;;3.72;1.90;;;29.20;83.90;;;;;;1829452;78;21198;-91
2022/11/13 11:17:06;;;;;;;4.33;1.32;;;29.20;83.60;;;;;;1838915;77;21089;-92
2022/11/13 11:19:39;;;;;;;3.10;1.60;;;29.20;83.40;;;;;;1844518;76;21066;-93
2022/11/13 11:22:21;;;;;;;4.62;2.45;;;29.30;83.40;;;;;;1823221;79;21207;-91
2022/11/13 11:25:04;;;;;;;7.53;3.98;;;29.30;84.40;;;;;;1815749;79;21058;-92
2022/11/13 11:27:38;;;;;;;9.35;3.35;;;29.30;83.30;;;;;;1811166;79;21147;-91
2022/11/13 11:30:30;;;;;;;6.05;3.02;;;29.30;83.00;;;;;;1814050;79;21121;-91
2022/11/13 11:36:34;;;;;;;3.77;2.40;;;29.30;83.20;;;;;;1808930;79;21130;-93
2022/11/13 11:39:42;;;;;;;5.05;2.77;;;29.30;83.40;;;;;;1809496;79;21612;-92
2022/11/13 11:42:49;;;;;;;6.15;2.58;;;29.30;83.80;;;;;;1823006;78;21207;-92
2022/11/13 11:45:38;;;;;;;6.67;3.27;;;29.30;83.80;;;;;;1825800;78;21121;-92
2022/11/13 11:48:40;;;;;;;6.78;3.50;;;29.30;83.60;;;;;;1825964;78;21081;-91
2022/11/13 11:51:31;;;;;;;5.47;2.95;;;29.30;84.40;;;;;;1745532;82;21174;-92
2022/11/13 11:54:21;;;;;;;8.05;2.87;;;29.20;83.80;;;;;;1747842;81;21155;-92
2022/11/13 11:57:03;;;;;;;4.97;2.80;;;29.30;84.00;;;;;;1759091;81;21144;-92
2022/11/13 11:59:37;;;;;;;5.90;2.90;;;29.20;83.60;;;;;;1787704;80;21153;-93
2022/11/13 12:02:25;;;;;;;4.37;2.70;;;29.20;84.00;;;;;;1811667;79;21153;-90
2022/11/13 12:05:21;;;;;;;5.37;2.83;;;29.10;83.80;;;;;;1750738;81;21161;-89
2022/11/13 12:08:11;;;;;;;3.98;2.65;;;29.10;83.80;;;;;;1801093;80;21241;-90
2022/11/13 12:11:02;;;;;;;5.33;2.65;;;29.10;82.90;;;;;;1805661;79;21129;-90
2022/11/13 12:16:44;;;;;;;6.75;4.08;;;29.10;83.10;;;;;;1920117;74;21070;-89
2022/11/13 12:19:24;;;;;;;7.83;3.27;;;29.10;83.80;;;;;;1928208;74;21123;-91
2022/11/13 12:22:09;;;;;;;7.53;3.70;;;29.00;83.70;;;;;;1924148;74;21546;-89
2022/11/13 12:25:02;;;;;;;8.73;3.60;;;29.00;83.40;;;;;;1930223;74;21083;-86
2022/11/13 12:27:54;;;;;;;9.13;4.25;;;29.00;84.10;;;;;;1942225;73;21563;-90
2022/11/13 12:30:46;;;;;;;10.78;4.67;;;29.00;85.20;;;;;;1926822;74;21115;-89
2022/11/13 12:33:25;;;;;;;8.28;4.85;;;29.00;86.20;;;;;;1923839;74;21520;-90
2022/11/13 12:35:57;;;;;;;10.98;5.33;;;28.90;85.70;;;;;;1931600;74;21146;-88
2022/11/13 12:38:39;;;;;;;12.93;5.78;;;28.90;86.00;;;;;;1929039;74;21036;-90
2022/11/13 12:41:42;;;;;;;12.88;5.67;;;28.90;86.60;;;;;;1939113;74;21626;-90
2022/11/13 12:44:27;;;;;;;10.63;5.97;;;28.80;86.60;;;;;;1891042;74;21052;-90
2022/11/13 12:47:04;;;;;;;14.40;6.15;;;28.70;86.20;;;;;;1882382;75;21708;-89
2022/11/13 12:49:37;;;;;;;11.93;5.97;;;28.80;86.30;;;;;;1913934;74;21540;-91
2022/11/13 12:52:19;;;;;;;13.62;5.97;;;28.70;86.70;;;;;;1938976;72;21100;-89
2022/11/13 12:54:51;;;;;;;9.90;6.10;;;28.70;87.70;;;;;;1935026;74;21139;-90
2022/11/13 13:02:59;;;;;;;12.23;6.15;;;28.60;87.70;;;;;;1885960;73;21212;-92
2022/11/13 13:05:52;;;;;;;13.20;6.10;;;28.60;87.70;;;;;;1886073;74;21120;-92
2022/11/13 13:08:44;;;;;;;12.00;6.67;;;28.60;88.00;;;;;;1912671;74;21147;-91
2022/11/13 13:11:29;;;;;;;10.78;6.20;;;28.60;88.40;;;;;;1898573;74;21127;-91
2022/11/13 13:14:26;;;;;;;14.40;6.08;;;28.60;88.40;;;;;;1820276;77;21144;-93
2022/11/13 13:17:19;;;;;;;12.20;6.75;;;28.60;88.50;;;;;;1848703;75;21612;-95
2022/11/13 13:20:07;;;;;;;13.88;6.40;;;28.60;88.60;;;;;;1874202;75;21055;-95
2022/11/13 13:22:40;;;;;;;14.03;6.92;;;28.50;89.00;;;;;;1871665;75;21082;-95
2022/11/13 13:25:41;;;;;;;8.63;5.55;;;28.40;88.50;;;;;;1879372;75;21219;-94
2022/11/13 13:28:18;;;;;;;11.57;6.20;;;28.40;89.00;;;;;;1873462;75;21372;-93
2022/11/13 13:31:00;;;;;;;10.75;6.37;;;28.40;88.70;;;;;;1854055;76;21167;-94
2022/11/13 13:36:57;;;;;;;9.65;6.22;;;28.40;88.90;;;;;;1826609;72;21362;-93
2022/11/13 13:39:37;;;;;;;;;;;28.40;89.40;;;;;;1855617;75;21143;-95
2022/11/13 13:42:29;;;;;;;12.05;6.03;;;28.30;87.80;;;;;;1934292;72;20175;-93
2022/11/13 13:45:06;;;;;;;11.40;6.28;;;28.30;88.60;;;;;;1895660;74;21133;-93
2022/11/13 13:47:45;;;;;;;10.90;6.92;;;28.30;88.50;;;;;;1953165;73;21088;-93
2022/11/13 13:50:25;;;;;;;11.93;6.72;;;28.30;89.40;;;;;;1922406;73;21240;-92
2022/11/13 13:56:55;;;;;;;11.65;7.45;;;28.30;89.80;;;;;;1756265;78;21144;-95
2022/11/13 13:59:36;;;;;;;15.18;6.75;;;28.30;89.60;;;;;;1847600;75;21146;-94
2022/11/13 14:02:26;;;;;;;10.70;6.33;;;28.30;89.20;;;;;;1846141;77;21135;-93
2022/11/13 14:05:36;;;;;;;10.00;6.37;;;28.30;89.10;;;;;;1899167;72;21823;-94
2022/11/13 14:08:19;;;;;;;14.50;6.90;;;28.30;89.60;;;;;;1935447;73;21181;-94
2022/11/13 14:11:09;;;;;;;12.18;7.10;;;28.20;90.00;;;;;;1948867;73;21103;-93
2022/11/13 14:13:42;;;;;;;12.00;7.05;;;28.20;90.10;;;;;;1937770;73;21102;-95
2022/11/13 14:16:16;;;;;;;14.90;8.30;;;28.20;90.10;;;;;;1952131;73;21154;-94
2022/11/13 14:18:47;;;;;;;14.53;7.30;;;28.30;90.70;;;;;;1952966;73;21204;-94
2022/11/13 14:21:23;;;;;;;12.13;7.15;;;28.20;90.20;;;;;;1940160;73;21228;-93
2022/11/13 14:24:01;;;;;;;12.45;7.28;;;28.20;90.30;;;;;;1914905;74;21686;-93
2022/11/13 14:26:34;;;;;;;12.95;6.72;;;28.20;90.30;;;;;;1941845;73;21201;-93
2022/11/13 14:29:08;;;;;;;15.88;8.10;;;28.10;90.00;;;;;;1928036;72;21222;-92
2022/11/13 14:31:42;;;;;;;11.55;7.37;;;28.10;90.50;;;;;;1945006;73;21177;-93
2022/11/13 14:34:27;;;;;;;11.20;7.17;;;28.10;90.60;;;;;;1953529;73;21700;-93
2022/11/13 14:37:09;;;;;;;17.92;7.85;;;28.20;90.40;;;;;;1932165;73;21143;-93
2022/11/13 14:39:47;;;;;;;11.50;6.70;;;28.10;91.00;;;;;;1931113;73;21128;-95
2022/11/13 14:42:23;;;;;;;14.20;7.25;;;28.10;90.20;;;;;;1947696;72;21136;-95
2022/11/13 14:45:22;;;;;;;13.05;6.92;;;28.10;90.60;;;;;;1895875;74;21130;-94
2022/11/13 14:48:24;;;;;;;14.30;7.58;;;28.10;90.40;;;;;;1900710;75;21555;-95
2022/11/13 14:50:59;;;;;;;12.05;7.22;;;28.10;90.60;;;;;;1875717;74;21182;-94
2022/11/13 14:53:36;;;;;;;14.23;6.95;;;28.10;90.80;;;;;;1894464;74;21087;-94
2022/11/13 14:56:12;;;;;;;13.53;8.18;;;28.00;90.30;;;;;;1893598;74;21209;-93
2022/11/13 14:58:46;;;;;;;13.30;8.10;;;28.10;91.20;;;;;;1937743;71;21080;-92
2022/11/13 15:01:23;;;;;;;15.45;8.45;;;28.00;90.80;;;;;;1898820;75;21087;-93
2022/11/13 15:03:56;;;;;;;16.27;9.28;;;28.00;90.90;;;;;;1930358;74;21087;-95
2022/11/13 15:06:29;;;;;;;16.48;8.65;;;28.00;90.80;;;;;;1887545;75;21112;-95
2022/11/13 15:09:16;;;;;;;16.93;8.98;;;28.00;90.80;;;;;;1905172;75;21120;-93
2022/11/13 15:11:52;;;;;;;14.23;8.38;;;28.00;90.80;;;;;;1897095;73;21688;-92
2022/11/13 15:14:34;;;;;;;14.83;8.80;;;28.00;90.80;;;;;;1894770;75;21116;-95
2022/11/13 15:17:20;;;;;;;14.98;9.05;;;27.90;90.90;;;;;;1877365;73;21211;-95
2022/11/13 15:22:37;;;;;;;11.85;8.53;;;27.90;91.00;;;;;;1903603;71;21222;-95
2022/11/13 15:25:16;;;;;;;12.95;8.05;;;27.90;90.90;;;;;;1906475;72;21170;-93
2022/11/13 15:27:52;;;;;;;15.13;7.90;;;27.90;91.10;;;;;;1919952;72;21108;-93
2022/11/13 15:34:00;;;;;;;13.30;8.78;;;27.90;91.00;;;;;;1837333;77;21126;-90